sensor_id;sensor_type;location;lat;lon;timestamp;P1;durP1;ratioP1;P2;durP2;ratioP2
48805;SDS011;34625;47.176;27.548;2022-10-24T00:01:06;10.80;;;6.45;;
48805;SDS011;34625;47.176;27.548;2022-10-24T00:03:34;8.75;;;6.55;;
48805;SDS011;34625;47.176;27.548;2022-10-24T00:06:00;10.75;;;6.22;;
48805;SDS011;34625;47.176;27.548;2022-10-24T00:08:26;9.73;;;5.82;;
48805;SDS011;34625;47.176;27.548;2022-10-24T00:10:52;8.30;;;6.05;;
48805;SDS011;34625;47.176;27.548;2022-10-24T00:13:18;6.93;;;5.63;;
48805;SDS011;34625;47.176;27.548;2022-10-24T00:15:47;8.68;;;5.75;;
48805;SDS011;34625;47.176;27.548;2022-10-24T00:18:14;10.45;;;5.65;;
48805;SDS011;34625;47.176;27.548;2022-10-24T00:20:40;7.70;;;5.75;;
48805;SDS011;34625;47.176;27.548;2022-10-24T00:23:07;10.07;;;5.60;;
48805;SDS011;34625;47.176;27.548;2022-10-24T00:25:34;9.48;;;5.47;;
48805;SDS011;34625;47.176;27.548;2022-10-24T00:28:00;8.75;;;5.60;;
48805;SDS011;34625;47.176;27.548;2022-10-24T00:30:26;8.68;;;5.80;;
48805;SDS011;34625;47.176;27.548;2022-10-24T00:32:52;8.52;;;5.60;;
48805;SDS011;34625;47.176;27.548;2022-10-24T00:35:18;7.05;;;5.40;;
48805;SDS011;34625;47.176;27.548;2022-10-24T00:37:45;9.70;;;5.50;;
48805;SDS011;34625;47.176;27.548;2022-10-24T00:40:12;9.18;;;5.20;;
48805;SDS011;34625;47.176;27.548;2022-10-24T00:42:42;7.90;;;4.93;;
48805;SDS011;34625;47.176;27.548;2022-10-24T00:47:56;9.52;;;6.15;;
48805;SDS011;34625;47.176;27.548;2022-10-24T00:50:22;10.00;;;6.13;;
48805;SDS011;34625;47.176;27.548;2022-10-24T00:52:49;10.57;;;6.57;;
48805;SDS011;34625;47.176;27.548;2022-10-24T00:55:15;10.10;;;6.38;;
48805;SDS011;34625;47.176;27.548;2022-10-24T00:57:45;12.13;;;6.97;;
48805;SDS011;34625;47.176;27.548;2022-10-24T01:00:19;9.77;;;6.10;;
48805;SDS011;34625;47.176;27.548;2022-10-24T01:02:56;10.13;;;6.47;;
48805;SDS011;34625;47.176;27.548;2022-10-24T01:05:25;13.82;;;7.10;;
48805;SDS011;34625;47.176;27.548;2022-10-24T01:11:01;11.18;;;6.43;;
48805;SDS011;34625;47.176;27.548;2022-10-24T01:16:24;8.55;;;5.90;;
48805;SDS011;34625;47.176;27.548;2022-10-24T01:22:00;8.45;;;5.40;;
48805;SDS011;34625;47.176;27.548;2022-10-24T01:32:19;6.35;;;4.50;;
48805;SDS011;34625;47.176;27.548;2022-10-24T01:40:40;12.43;;;5.63;;
48805;SDS011;34625;47.176;27.548;2022-10-24T01:43:16;9.20;;;5.20;;
48805;SDS011;34625;47.176;27.548;2022-10-24T01:45:50;10.50;;;5.35;;
48805;SDS011;34625;47.176;27.548;2022-10-24T01:48:23;6.35;;;5.25;;
48805;SDS011;34625;47.176;27.548;2022-10-24T01:50:53;6.15;;;4.80;;
48805;SDS011;34625;47.176;27.548;2022-10-24T01:53:21;6.28;;;4.78;;
48805;SDS011;34625;47.176;27.548;2022-10-24T01:55:48;7.57;;;5.03;;
48805;SDS011;34625;47.176;27.548;2022-10-24T01:58:15;6.88;;;4.82;;
48805;SDS011;34625;47.176;27.548;2022-10-24T02:00:42;8.50;;;5.22;;
48805;SDS011;34625;47.176;27.548;2022-10-24T02:03:16;11.90;;;5.10;;
48805;SDS011;34625;47.176;27.548;2022-10-24T02:05:50;7.40;;;5.22;;
48805;SDS011;34625;47.176;27.548;2022-10-24T02:08:23;5.68;;;4.60;;
48805;SDS011;34625;47.176;27.548;2022-10-24T02:10:56;6.30;;;4.72;;
48805;SDS011;34625;47.176;27.548;2022-10-24T02:13:30;8.75;;;5.70;;
48805;SDS011;34625;47.176;27.548;2022-10-24T02:16:03;6.28;;;4.78;;
48805;SDS011;34625;47.176;27.548;2022-10-24T02:18:30;7.45;;;5.07;;
48805;SDS011;34625;47.176;27.548;2022-10-24T02:20:58;6.00;;;4.70;;
48805;SDS011;34625;47.176;27.548;2022-10-24T02:26:09;7.07;;;5.05;;
48805;SDS011;34625;47.176;27.548;2022-10-24T02:28:44;8.50;;;5.13;;
48805;SDS011;34625;47.176;27.548;2022-10-24T02:31:16;6.93;;;5.13;;
48805;SDS011;34625;47.176;27.548;2022-10-24T02:33:46;5.82;;;4.13;;
48805;SDS011;34625;47.176;27.548;2022-10-24T02:36:15;5.88;;;4.25;;
48805;SDS011;34625;47.176;27.548;2022-10-24T02:38:45;7.28;;;4.97;;
48805;SDS011;34625;47.176;27.548;2022-10-24T02:41:20;6.53;;;4.40;;
48805;SDS011;34625;47.176;27.548;2022-10-24T02:43:49;5.20;;;3.85;;
48805;SDS011;34625;47.176;27.548;2022-10-24T02:46:18;7.90;;;4.57;;
48805;SDS011;34625;47.176;27.548;2022-10-24T02:48:46;6.75;;;4.28;;
48805;SDS011;34625;47.176;27.548;2022-10-24T02:51:18;5.43;;;4.03;;
48805;SDS011;34625;47.176;27.548;2022-10-24T02:53:48;4.30;;;3.90;;
48805;SDS011;34625;47.176;27.548;2022-10-24T02:56:15;5.65;;;3.70;;
48805;SDS011;34625;47.176;27.548;2022-10-24T02:58:41;6.43;;;3.80;;
48805;SDS011;34625;47.176;27.548;2022-10-24T03:01:07;4.53;;;3.80;;
48805;SDS011;34625;47.176;27.548;2022-10-24T03:03:33;5.10;;;4.00;;
48805;SDS011;34625;47.176;27.548;2022-10-24T03:05:59;7.70;;;4.53;;
48805;SDS011;34625;47.176;27.548;2022-10-24T03:08:25;4.38;;;3.72;;
48805;SDS011;34625;47.176;27.548;2022-10-24T03:10:52;5.57;;;3.95;;
48805;SDS011;34625;47.176;27.548;2022-10-24T03:13:18;5.72;;;4.20;;
48805;SDS011;34625;47.176;27.548;2022-10-24T03:15:44;7.53;;;4.00;;
48805;SDS011;34625;47.176;27.548;2022-10-24T03:18:10;6.07;;;4.70;;
48805;SDS011;34625;47.176;27.548;2022-10-24T03:20:36;6.05;;;4.00;;
48805;SDS011;34625;47.176;27.548;2022-10-24T03:23:01;6.60;;;4.50;;
48805;SDS011;34625;47.176;27.548;2022-10-24T03:25:27;6.20;;;4.18;;
48805;SDS011;34625;47.176;27.548;2022-10-24T03:27:54;6.80;;;4.18;;
48805;SDS011;34625;47.176;27.548;2022-10-24T03:30:20;6.18;;;3.95;;
48805;SDS011;34625;47.176;27.548;2022-10-24T03:32:46;4.25;;;3.78;;
48805;SDS011;34625;47.176;27.548;2022-10-24T03:35:12;7.60;;;4.20;;
48805;SDS011;34625;47.176;27.548;2022-10-24T03:37:38;5.53;;;3.78;;
48805;SDS011;34625;47.176;27.548;2022-10-24T03:40:04;5.75;;;3.75;;
48805;SDS011;34625;47.176;27.548;2022-10-24T03:42:30;5.72;;;4.07;;
48805;SDS011;34625;47.176;27.548;2022-10-24T03:44:56;7.45;;;4.40;;
48805;SDS011;34625;47.176;27.548;2022-10-24T03:47:22;7.35;;;4.60;;
48805;SDS011;34625;47.176;27.548;2022-10-24T03:49:48;9.65;;;4.70;;
48805;SDS011;34625;47.176;27.548;2022-10-24T03:52:14;7.00;;;4.40;;
48805;SDS011;34625;47.176;27.548;2022-10-24T03:54:40;5.30;;;4.38;;
48805;SDS011;34625;47.176;27.548;2022-10-24T03:57:06;5.22;;;3.78;;
48805;SDS011;34625;47.176;27.548;2022-10-24T03:59:34;7.82;;;4.43;;
48805;SDS011;34625;47.176;27.548;2022-10-24T04:02:01;6.28;;;4.20;;
48805;SDS011;34625;47.176;27.548;2022-10-24T04:04:28;8.48;;;4.55;;
48805;SDS011;34625;47.176;27.548;2022-10-24T04:06:54;8.63;;;3.83;;
48805;SDS011;34625;47.176;27.548;2022-10-24T04:09:20;7.00;;;4.78;;
48805;SDS011;34625;47.176;27.548;2022-10-24T04:11:47;9.30;;;4.05;;
48805;SDS011;34625;47.176;27.548;2022-10-24T04:14:13;10.50;;;5.32;;
48805;SDS011;34625;47.176;27.548;2022-10-24T04:16:39;8.02;;;5.80;;
48805;SDS011;34625;47.176;27.548;2022-10-24T04:19:05;8.45;;;5.70;;
48805;SDS011;34625;47.176;27.548;2022-10-24T04:21:31;11.55;;;6.03;;
48805;SDS011;34625;47.176;27.548;2022-10-24T04:23:57;11.35;;;5.07;;
48805;SDS011;34625;47.176;27.548;2022-10-24T04:26:23;10.70;;;6.18;;
48805;SDS011;34625;47.176;27.548;2022-10-24T04:28:50;10.65;;;6.00;;
48805;SDS011;34625;47.176;27.548;2022-10-24T04:31:16;14.93;;;6.50;;
48805;SDS011;34625;47.176;27.548;2022-10-24T04:33:42;11.50;;;6.38;;
48805;SDS011;34625;47.176;27.548;2022-10-24T04:36:08;15.45;;;6.60;;
48805;SDS011;34625;47.176;27.548;2022-10-24T04:38:34;13.25;;;6.63;;
48805;SDS011;34625;47.176;27.548;2022-10-24T04:41:00;14.73;;;6.80;;
48805;SDS011;34625;47.176;27.548;2022-10-24T04:43:26;13.68;;;7.00;;
48805;SDS011;34625;47.176;27.548;2022-10-24T04:45:52;12.55;;;6.78;;
48805;SDS011;34625;47.176;27.548;2022-10-24T04:48:18;12.95;;;6.68;;
48805;SDS011;34625;47.176;27.548;2022-10-24T04:50:45;13.45;;;6.38;;
48805;SDS011;34625;47.176;27.548;2022-10-24T04:53:12;10.32;;;6.80;;
48805;SDS011;34625;47.176;27.548;2022-10-24T04:55:38;10.05;;;5.97;;
48805;SDS011;34625;47.176;27.548;2022-10-24T04:58:04;7.72;;;5.10;;
48805;SDS011;34625;47.176;27.548;2022-10-24T05:00:30;6.13;;;4.50;;
48805;SDS011;34625;47.176;27.548;2022-10-24T05:02:56;7.60;;;4.43;;
48805;SDS011;34625;47.176;27.548;2022-10-24T05:05:22;7.22;;;5.07;;
48805;SDS011;34625;47.176;27.548;2022-10-24T05:07:48;8.98;;;4.85;;
48805;SDS011;34625;47.176;27.548;2022-10-24T05:10:14;10.88;;;5.22;;
48805;SDS011;34625;47.176;27.548;2022-10-24T05:12:41;13.57;;;5.43;;
48805;SDS011;34625;47.176;27.548;2022-10-24T05:15:08;11.05;;;7.05;;
48805;SDS011;34625;47.176;27.548;2022-10-24T05:17:35;9.65;;;5.72;;
48805;SDS011;34625;47.176;27.548;2022-10-24T05:20:01;14.27;;;8.20;;
48805;SDS011;34625;47.176;27.548;2022-10-24T05:22:28;9.38;;;7.15;;
48805;SDS011;34625;47.176;27.548;2022-10-24T05:24:54;14.70;;;9.15;;
48805;SDS011;34625;47.176;27.548;2022-10-24T05:27:20;14.32;;;8.13;;
48805;SDS011;34625;47.176;27.548;2022-10-24T05:29:49;17.05;;;8.38;;
48805;SDS011;34625;47.176;27.548;2022-10-24T05:32:16;21.05;;;9.00;;
48805;SDS011;34625;47.176;27.548;2022-10-24T05:34:43;17.30;;;9.02;;
48805;SDS011;34625;47.176;27.548;2022-10-24T05:37:09;11.75;;;7.40;;
48805;SDS011;34625;47.176;27.548;2022-10-24T05:39:35;5.95;;;4.55;;
48805;SDS011;34625;47.176;27.548;2022-10-24T05:42:01;8.27;;;4.68;;
48805;SDS011;34625;47.176;27.548;2022-10-24T05:44:28;8.93;;;5.07;;
48805;SDS011;34625;47.176;27.548;2022-10-24T05:46:54;13.07;;;5.07;;
48805;SDS011;34625;47.176;27.548;2022-10-24T05:49:21;10.20;;;5.35;;
48805;SDS011;34625;47.176;27.548;2022-10-24T05:51:47;9.80;;;5.90;;
48805;SDS011;34625;47.176;27.548;2022-10-24T05:54:13;10.88;;;5.65;;
48805;SDS011;34625;47.176;27.548;2022-10-24T05:56:39;9.10;;;5.68;;
48805;SDS011;34625;47.176;27.548;2022-10-24T05:59:05;9.07;;;5.75;;
48805;SDS011;34625;47.176;27.548;2022-10-24T06:01:31;7.80;;;5.55;;
48805;SDS011;34625;47.176;27.548;2022-10-24T06:03:57;9.10;;;5.53;;
48805;SDS011;34625;47.176;27.548;2022-10-24T06:06:23;12.77;;;8.68;;
48805;SDS011;34625;47.176;27.548;2022-10-24T06:08:49;16.55;;;9.85;;
48805;SDS011;34625;47.176;27.548;2022-10-24T06:11:16;9.95;;;8.38;;
48805;SDS011;34625;47.176;27.548;2022-10-24T06:13:43;10.73;;;7.65;;
48805;SDS011;34625;47.176;27.548;2022-10-24T06:16:09;13.43;;;6.45;;
48805;SDS011;34625;47.176;27.548;2022-10-24T06:18:36;14.80;;;7.07;;
48805;SDS011;34625;47.176;27.548;2022-10-24T06:21:03;15.60;;;8.75;;
48805;SDS011;34625;47.176;27.548;2022-10-24T06:23:31;16.88;;;9.32;;
48805;SDS011;34625;47.176;27.548;2022-10-24T06:25:57;16.98;;;9.20;;
48805;SDS011;34625;47.176;27.548;2022-10-24T06:28:23;16.95;;;9.05;;
48805;SDS011;34625;47.176;27.548;2022-10-24T06:30:50;17.10;;;9.65;;
48805;SDS011;34625;47.176;27.548;2022-10-24T06:33:16;14.90;;;8.70;;
48805;SDS011;34625;47.176;27.548;2022-10-24T06:35:42;24.95;;;10.45;;
48805;SDS011;34625;47.176;27.548;2022-10-24T06:38:08;19.60;;;9.85;;
48805;SDS011;34625;47.176;27.548;2022-10-24T06:40:35;21.20;;;9.35;;
48805;SDS011;34625;47.176;27.548;2022-10-24T06:43:04;15.43;;;9.05;;
48805;SDS011;34625;47.176;27.548;2022-10-24T06:45:30;14.38;;;8.18;;
48805;SDS011;34625;47.176;27.548;2022-10-24T06:47:56;14.35;;;8.23;;
48805;SDS011;34625;47.176;27.548;2022-10-24T06:50:22;18.48;;;8.40;;
48805;SDS011;34625;47.176;27.548;2022-10-24T06:52:48;17.00;;;7.95;;
48805;SDS011;34625;47.176;27.548;2022-10-24T06:55:14;8.75;;;6.05;;
48805;SDS011;34625;47.176;27.548;2022-10-24T06:57:40;11.55;;;6.45;;
48805;SDS011;34625;47.176;27.548;2022-10-24T07:00:06;13.35;;;6.38;;
48805;SDS011;34625;47.176;27.548;2022-10-24T07:02:33;13.25;;;7.05;;
48805;SDS011;34625;47.176;27.548;2022-10-24T07:05:06;20.75;;;8.90;;
48805;SDS011;34625;47.176;27.548;2022-10-24T07:07:37;13.98;;;7.43;;
48805;SDS011;34625;47.176;27.548;2022-10-24T07:10:04;11.05;;;6.95;;
48805;SDS011;34625;47.176;27.548;2022-10-24T07:12:31;11.68;;;6.07;;
48805;SDS011;34625;47.176;27.548;2022-10-24T07:14:57;13.85;;;8.18;;
48805;SDS011;34625;47.176;27.548;2022-10-24T07:17:23;15.55;;;8.20;;
48805;SDS011;34625;47.176;27.548;2022-10-24T07:19:52;18.45;;;8.15;;
48805;SDS011;34625;47.176;27.548;2022-10-24T07:22:19;14.07;;;7.45;;
48805;SDS011;34625;47.176;27.548;2022-10-24T07:24:45;13.27;;;7.63;;
48805;SDS011;34625;47.176;27.548;2022-10-24T07:27:16;17.00;;;8.35;;
48805;SDS011;34625;47.176;27.548;2022-10-24T07:29:41;18.23;;;9.23;;
48805;SDS011;34625;47.176;27.548;2022-10-24T07:32:08;16.98;;;9.15;;
48805;SDS011;34625;47.176;27.548;2022-10-24T07:34:35;11.82;;;7.63;;
48805;SDS011;34625;47.176;27.548;2022-10-24T07:37:03;8.93;;;6.65;;
48805;SDS011;34625;47.176;27.548;2022-10-24T07:39:29;14.50;;;7.82;;
48805;SDS011;34625;47.176;27.548;2022-10-24T07:41:55;17.13;;;8.68;;
48805;SDS011;34625;47.176;27.548;2022-10-24T07:44:21;12.38;;;7.43;;
48805;SDS011;34625;47.176;27.548;2022-10-24T07:46:47;11.65;;;7.55;;
48805;SDS011;34625;47.176;27.548;2022-10-24T07:49:13;17.83;;;8.93;;
48805;SDS011;34625;47.176;27.548;2022-10-24T07:51:39;13.02;;;8.23;;
48805;SDS011;34625;47.176;27.548;2022-10-24T07:54:06;4.88;;;1.13;;
48805;SDS011;34625;47.176;27.548;2022-10-24T07:56:32;33.80;;;10.23;;
48805;SDS011;34625;47.176;27.548;2022-10-24T07:58:58;18.70;;;4.57;;
48805;SDS011;34625;47.176;27.548;2022-10-24T08:01:26;8.82;;;3.75;;
48805;SDS011;34625;47.176;27.548;2022-10-24T08:03:53;2.30;;;1.98;;
48805;SDS011;34625;47.176;27.548;2022-10-24T08:06:21;22.83;;;8.90;;
48805;SDS011;34625;47.176;27.548;2022-10-24T08:08:53;19.92;;;9.50;;
48805;SDS011;34625;47.176;27.548;2022-10-24T08:11:21;13.05;;;8.27;;
48805;SDS011;34625;47.176;27.548;2022-10-24T08:13:49;16.13;;;8.20;;
48805;SDS011;34625;47.176;27.548;2022-10-24T08:16:16;15.57;;;8.32;;
48805;SDS011;34625;47.176;27.548;2022-10-24T08:18:48;13.07;;;7.72;;
48805;SDS011;34625;47.176;27.548;2022-10-24T08:21:16;14.23;;;8.75;;
48805;SDS011;34625;47.176;27.548;2022-10-24T08:23:44;11.70;;;8.52;;
48805;SDS011;34625;47.176;27.548;2022-10-24T08:26:13;18.83;;;9.30;;
48805;SDS011;34625;47.176;27.548;2022-10-24T08:28:42;16.05;;;9.27;;
48805;SDS011;34625;47.176;27.548;2022-10-24T08:31:09;13.38;;;8.70;;
48805;SDS011;34625;47.176;27.548;2022-10-24T08:33:38;11.65;;;7.82;;
48805;SDS011;34625;47.176;27.548;2022-10-24T08:36:05;13.20;;;8.77;;
48805;SDS011;34625;47.176;27.548;2022-10-24T08:38:38;14.20;;;8.35;;
48805;SDS011;34625;47.176;27.548;2022-10-24T08:41:04;17.13;;;8.23;;
48805;SDS011;34625;47.176;27.548;2022-10-24T08:43:31;12.88;;;8.35;;
48805;SDS011;34625;47.176;27.548;2022-10-24T08:46:16;12.55;;;6.97;;
48805;SDS011;34625;47.176;27.548;2022-10-24T08:49:13;12.38;;;6.53;;
48805;SDS011;34625;47.176;27.548;2022-10-24T08:51:59;16.25;;;7.50;;
48805;SDS011;34625;47.176;27.548;2022-10-24T08:56:57;12.45;;;7.32;;
48805;SDS011;34625;47.176;27.548;2022-10-24T08:59:25;10.85;;;7.15;;
48805;SDS011;34625;47.176;27.548;2022-10-24T09:01:59;17.40;;;7.57;;
48805;SDS011;34625;47.176;27.548;2022-10-24T09:04:33;8.38;;;6.35;;
48805;SDS011;34625;47.176;27.548;2022-10-24T09:07:03;9.27;;;5.63;;
48805;SDS011;34625;47.176;27.548;2022-10-24T09:09:41;7.93;;;4.78;;
48805;SDS011;34625;47.176;27.548;2022-10-24T09:12:13;7.25;;;5.13;;
48805;SDS011;34625;47.176;27.548;2022-10-24T09:14:42;4.93;;;4.35;;
48805;SDS011;34625;47.176;27.548;2022-10-24T09:20:05;13.73;;;5.28;;
48805;SDS011;34625;47.176;27.548;2022-10-24T09:22:54;8.90;;;4.65;;
48805;SDS011;34625;47.176;27.548;2022-10-24T09:25:28;6.63;;;3.95;;
48805;SDS011;34625;47.176;27.548;2022-10-24T09:27:58;6.95;;;5.00;;
48805;SDS011;34625;47.176;27.548;2022-10-24T09:30:27;9.93;;;4.90;;
48805;SDS011;34625;47.176;27.548;2022-10-24T09:32:54;11.82;;;5.05;;
48805;SDS011;34625;47.176;27.548;2022-10-24T09:35:26;8.32;;;5.03;;
48805;SDS011;34625;47.176;27.548;2022-10-24T09:37:55;6.53;;;4.90;;
48805;SDS011;34625;47.176;27.548;2022-10-24T09:40:23;8.55;;;5.38;;
48805;SDS011;34625;47.176;27.548;2022-10-24T09:45:44;7.97;;;5.47;;
48805;SDS011;34625;47.176;27.548;2022-10-24T09:50:56;10.18;;;5.03;;
48805;SDS011;34625;47.176;27.548;2022-10-24T09:53:31;8.18;;;4.80;;
48805;SDS011;34625;47.176;27.548;2022-10-24T09:56:14;7.72;;;5.18;;
48805;SDS011;34625;47.176;27.548;2022-10-24T09:58:40;7.15;;;5.22;;
48805;SDS011;34625;47.176;27.548;2022-10-24T10:03:39;6.63;;;4.97;;
48805;SDS011;34625;47.176;27.548;2022-10-24T10:06:15;9.88;;;6.20;;
48805;SDS011;34625;47.176;27.548;2022-10-24T10:08:53;8.02;;;5.13;;
48805;SDS011;34625;47.176;27.548;2022-10-24T10:11:25;8.30;;;5.45;;
48805;SDS011;34625;47.176;27.548;2022-10-24T10:13:55;8.05;;;5.30;;
48805;SDS011;34625;47.176;27.548;2022-10-24T10:19:14;5.95;;;5.32;;
48805;SDS011;34625;47.176;27.548;2022-10-24T10:27:27;6.53;;;4.45;;
48805;SDS011;34625;47.176;27.548;2022-10-24T10:32:39;3.65;;;2.95;;
48805;SDS011;34625;47.176;27.548;2022-10-24T10:35:27;3.60;;;3.30;;
48805;SDS011;34625;47.176;27.548;2022-10-24T10:40:51;5.78;;;3.45;;
48805;SDS011;34625;47.176;27.548;2022-10-24T10:46:36;4.93;;;3.20;;
48805;SDS011;34625;47.176;27.548;2022-10-24T10:49:24;4.97;;;2.83;;
48805;SDS011;34625;47.176;27.548;2022-10-24T10:57:06;2.90;;;2.30;;
48805;SDS011;34625;47.176;27.548;2022-10-24T11:05:15;3.38;;;2.72;;
48805;SDS011;34625;47.176;27.548;2022-10-24T11:10:32;3.38;;;2.55;;
48805;SDS011;34625;47.176;27.548;2022-10-24T11:13:13;2.17;;;2.00;;
48805;SDS011;34625;47.176;27.548;2022-10-24T11:15:45;4.18;;;3.00;;
48805;SDS011;34625;47.176;27.548;2022-10-24T11:18:21;3.40;;;2.42;;
48805;SDS011;34625;47.176;27.548;2022-10-24T11:20:51;3.50;;;2.47;;
48805;SDS011;34625;47.176;27.548;2022-10-24T11:23:30;3.20;;;2.38;;
48805;SDS011;34625;47.176;27.548;2022-10-24T11:26:18;2.85;;;2.38;;
48805;SDS011;34625;47.176;27.548;2022-10-24T11:28:53;3.90;;;2.10;;
48805;SDS011;34625;47.176;27.548;2022-10-24T11:31:34;3.67;;;2.60;;
48805;SDS011;34625;47.176;27.548;2022-10-24T11:34:10;3.38;;;3.00;;
48805;SDS011;34625;47.176;27.548;2022-10-24T11:39:47;2.83;;;2.40;;
48805;SDS011;34625;47.176;27.548;2022-10-24T11:45:18;3.70;;;2.63;;
48805;SDS011;34625;47.176;27.548;2022-10-24T11:50:44;6.72;;;2.50;;
48805;SDS011;34625;47.176;27.548;2022-10-24T11:58:25;3.35;;;2.40;;
48805;SDS011;34625;47.176;27.548;2022-10-24T12:20:27;6.82;;;2.30;;
48805;SDS011;34625;47.176;27.548;2022-10-24T12:22:55;4.55;;;2.60;;
48805;SDS011;34625;47.176;27.548;2022-10-24T12:25:28;7.10;;;2.60;;
48805;SDS011;34625;47.176;27.548;2022-10-24T12:27:56;4.20;;;2.38;;
48805;SDS011;34625;47.176;27.548;2022-10-24T12:30:27;4.15;;;2.42;;
48805;SDS011;34625;47.176;27.548;2022-10-24T12:35:32;4.70;;;3.03;;
48805;SDS011;34625;47.176;27.548;2022-10-24T12:38:15;3.30;;;2.55;;
48805;SDS011;34625;47.176;27.548;2022-10-24T12:41:03;5.72;;;2.70;;
48805;SDS011;34625;47.176;27.548;2022-10-24T12:43:40;2.83;;;2.10;;
48805;SDS011;34625;47.176;27.548;2022-10-24T12:59:23;2.70;;;2.25;;
48805;SDS011;34625;47.176;27.548;2022-10-24T13:04:50;5.95;;;2.33;;
48805;SDS011;34625;47.176;27.548;2022-10-24T13:15:51;6.18;;;2.85;;
48805;SDS011;34625;47.176;27.548;2022-10-24T13:23:38;2.72;;;2.15;;
48805;SDS011;34625;47.176;27.548;2022-10-24T13:26:05;4.97;;;2.40;;
48805;SDS011;34625;47.176;27.548;2022-10-24T13:28:38;6.40;;;2.70;;
48805;SDS011;34625;47.176;27.548;2022-10-24T13:41:11;4.30;;;2.85;;
48805;SDS011;34625;47.176;27.548;2022-10-24T13:43:46;6.47;;;2.70;;
48805;SDS011;34625;47.176;27.548;2022-10-24T13:46:45;4.05;;;2.75;;
48805;SDS011;34625;47.176;27.548;2022-10-24T13:49:30;6.22;;;3.47;;
48805;SDS011;34625;47.176;27.548;2022-10-24T13:52:17;4.32;;;2.80;;
48805;SDS011;34625;47.176;27.548;2022-10-24T13:54:48;4.15;;;2.85;;
48805;SDS011;34625;47.176;27.548;2022-10-24T13:57:22;0.90;;;0.90;;
48805;SDS011;34625;47.176;27.548;2022-10-24T14:00:02;2.80;;;1.77;;
48805;SDS011;34625;47.176;27.548;2022-10-24T14:02:37;2.17;;;1.23;;
48805;SDS011;34625;47.176;27.548;2022-10-24T14:05:06;1.67;;;1.02;;
48805;SDS011;34625;47.176;27.548;2022-10-24T14:07:42;0.93;;;0.90;;
48805;SDS011;34625;47.176;27.548;2022-10-24T14:10:12;4.57;;;3.28;;
48805;SDS011;34625;47.176;27.548;2022-10-24T14:12:41;5.95;;;3.58;;
48805;SDS011;34625;47.176;27.548;2022-10-24T14:15:19;1.10;;;1.10;;
48805;SDS011;34625;47.176;27.548;2022-10-24T14:17:57;5.22;;;1.83;;
48805;SDS011;34625;47.176;27.548;2022-10-24T14:20:33;2.97;;;1.35;;
48805;SDS011;34625;47.176;27.548;2022-10-24T14:23:01;1.17;;;1.10;;
48805;SDS011;34625;47.176;27.548;2022-10-24T14:28:00;7.60;;;3.60;;
48805;SDS011;34625;47.176;27.548;2022-10-24T14:30:41;5.30;;;3.20;;
48805;SDS011;34625;47.176;27.548;2022-10-24T14:33:20;5.57;;;3.38;;
48805;SDS011;34625;47.176;27.548;2022-10-24T14:35:49;6.13;;;3.10;;
48805;SDS011;34625;47.176;27.548;2022-10-24T14:38:16;7.80;;;3.30;;
48805;SDS011;34625;47.176;27.548;2022-10-24T14:40:43;7.97;;;3.28;;
48805;SDS011;34625;47.176;27.548;2022-10-24T14:43:24;3.60;;;2.83;;
48805;SDS011;34625;47.176;27.548;2022-10-24T14:48:44;4.78;;;2.83;;
48805;SDS011;34625;47.176;27.548;2022-10-24T14:51:16;4.25;;;3.47;;
48805;SDS011;34625;47.176;27.548;2022-10-24T14:53:45;6.07;;;3.17;;
48805;SDS011;34625;47.176;27.548;2022-10-24T14:56:28;5.57;;;3.30;;
48805;SDS011;34625;47.176;27.548;2022-10-24T14:58:59;11.68;;;3.72;;
48805;SDS011;34625;47.176;27.548;2022-10-24T15:01:30;6.07;;;3.25;;
48805;SDS011;34625;47.176;27.548;2022-10-24T15:03:57;5.28;;;3.17;;
48805;SDS011;34625;47.176;27.548;2022-10-24T15:06:46;5.28;;;3.97;;
48805;SDS011;34625;47.176;27.548;2022-10-24T15:11:39;12.82;;;6.25;;
48805;SDS011;34625;47.176;27.548;2022-10-24T15:17:04;9.85;;;7.35;;
48805;SDS011;34625;47.176;27.548;2022-10-24T15:19:44;11.45;;;8.48;;
48805;SDS011;34625;47.176;27.548;2022-10-24T15:24:52;12.93;;;8.80;;
48805;SDS011;34625;47.176;27.548;2022-10-24T15:27:39;13.95;;;8.45;;
48805;SDS011;34625;47.176;27.548;2022-10-24T15:30:20;13.15;;;8.48;;
48805;SDS011;34625;47.176;27.548;2022-10-24T15:32:48;12.52;;;7.65;;
48805;SDS011;34625;47.176;27.548;2022-10-24T15:35:15;10.52;;;7.30;;
48805;SDS011;34625;47.176;27.548;2022-10-24T15:37:52;11.65;;;8.63;;
48805;SDS011;34625;47.176;27.548;2022-10-24T15:40:21;13.18;;;9.25;;
48805;SDS011;34625;47.176;27.548;2022-10-24T15:42:50;15.63;;;9.82;;
48805;SDS011;34625;47.176;27.548;2022-10-24T15:45:16;15.15;;;8.60;;
48805;SDS011;34625;47.176;27.548;2022-10-24T15:47:43;10.82;;;7.38;;
48805;SDS011;34625;47.176;27.548;2022-10-24T15:50:13;14.98;;;7.00;;
48805;SDS011;34625;47.176;27.548;2022-10-24T15:52:41;9.63;;;7.72;;
48805;SDS011;34625;47.176;27.548;2022-10-24T15:55:10;14.70;;;9.52;;
48805;SDS011;34625;47.176;27.548;2022-10-24T15:57:42;15.65;;;9.13;;
48805;SDS011;34625;47.176;27.548;2022-10-24T16:00:08;13.35;;;8.73;;
48805;SDS011;34625;47.176;27.548;2022-10-24T16:02:37;14.10;;;8.52;;
48805;SDS011;34625;47.176;27.548;2022-10-24T16:05:05;17.25;;;9.40;;
48805;SDS011;34625;47.176;27.548;2022-10-24T16:07:37;13.65;;;8.18;;
48805;SDS011;34625;47.176;27.548;2022-10-24T16:10:03;11.70;;;8.30;;
48805;SDS011;34625;47.176;27.548;2022-10-24T16:12:30;12.68;;;8.13;;
48805;SDS011;34625;47.176;27.548;2022-10-24T16:14:56;16.42;;;7.72;;
48805;SDS011;34625;47.176;27.548;2022-10-24T16:17:22;12.90;;;6.35;;
48805;SDS011;34625;47.176;27.548;2022-10-24T16:19:48;7.78;;;6.30;;
48805;SDS011;34625;47.176;27.548;2022-10-24T16:22:14;18.02;;;7.93;;
48805;SDS011;34625;47.176;27.548;2022-10-24T16:24:40;11.98;;;7.63;;
48805;SDS011;34625;47.176;27.548;2022-10-24T16:27:06;13.30;;;7.47;;
48805;SDS011;34625;47.176;27.548;2022-10-24T16:29:32;8.52;;;5.90;;
48805;SDS011;34625;47.176;27.548;2022-10-24T16:31:58;11.95;;;6.68;;
48805;SDS011;34625;47.176;27.548;2022-10-24T16:34:24;13.65;;;7.03;;
48805;SDS011;34625;47.176;27.548;2022-10-24T16:36:53;10.10;;;6.32;;
48805;SDS011;34625;47.176;27.548;2022-10-24T16:39:20;10.25;;;6.10;;
48805;SDS011;34625;47.176;27.548;2022-10-24T16:41:46;13.55;;;8.40;;
48805;SDS011;34625;47.176;27.548;2022-10-24T16:44:12;6.63;;;5.68;;
48805;SDS011;34625;47.176;27.548;2022-10-24T16:46:38;13.55;;;7.03;;
48805;SDS011;34625;47.176;27.548;2022-10-24T16:49:04;7.60;;;5.38;;
48805;SDS011;34625;47.176;27.548;2022-10-24T16:51:30;8.70;;;6.97;;
48805;SDS011;34625;47.176;27.548;2022-10-24T16:54:00;8.27;;;5.60;;
48805;SDS011;34625;47.176;27.548;2022-10-24T16:56:27;20.27;;;10.90;;
48805;SDS011;34625;47.176;27.548;2022-10-24T16:58:53;23.73;;;11.52;;
48805;SDS011;34625;47.176;27.548;2022-10-24T17:01:19;22.90;;;10.07;;
48805;SDS011;34625;47.176;27.548;2022-10-24T17:03:47;22.33;;;10.80;;
48805;SDS011;34625;47.176;27.548;2022-10-24T17:06:13;17.77;;;9.75;;
48805;SDS011;34625;47.176;27.548;2022-10-24T17:08:40;18.50;;;9.95;;
48805;SDS011;34625;47.176;27.548;2022-10-24T17:11:06;20.45;;;9.55;;
48805;SDS011;34625;47.176;27.548;2022-10-24T17:13:32;15.15;;;8.25;;
48805;SDS011;34625;47.176;27.548;2022-10-24T17:15:58;20.02;;;9.43;;
48805;SDS011;34625;47.176;27.548;2022-10-24T17:18:24;18.95;;;8.98;;
48805;SDS011;34625;47.176;27.548;2022-10-24T17:20:52;21.75;;;8.85;;
48805;SDS011;34625;47.176;27.548;2022-10-24T17:23:24;17.83;;;7.68;;